createdAt,value
2017-09-19T00:00:27.460Z,37.88
2017-09-19T00:02:55.699Z,39.45
2017-09-19T00:05:23.260Z,41.37
2017-09-19T00:07:51.532Z,38.80
2017-09-19T00:10:19.789Z,38.83
2017-09-19T00:12:48.160Z,45.45
2017-09-19T00:15:15.641Z,41.72
2017-09-19T00:17:43.128Z,40.22
2017-09-19T00:20:11.400Z,39.03
2017-09-19T00:22:39.635Z,41.73
2017-09-19T00:25:07.111Z,47.38
2017-09-19T00:27:35.556Z,44.07
2017-09-19T00:30:03.784Z,46.13
2017-09-19T00:32:31.363Z,44.60
2017-09-19T00:34:59.835Z,46.30
2017-09-19T00:37:27.307Z,45.83
2017-09-19T00:39:54.771Z,41.17
2017-09-19T00:42:22.452Z,43.77
2017-09-19T00:44:49.937Z,44.08
2017-09-19T00:47:17.551Z,44.20
2017-09-19T00:49:45.904Z,42.77
2017-09-19T00:52:14.149Z,45.55
2017-09-19T00:54:41.713Z,47.35
2017-09-19T00:57:10.071Z,42.37
2017-09-19T00:59:38.334Z,43.17
2017-09-19T01:02:06.565Z,48.55
2017-09-19T01:04:34.132Z,53.13
2017-09-19T01:07:02.368Z,54.28
2017-09-19T01:09:29.831Z,50.90
2017-09-19T01:11:58.091Z,56.40
2017-09-19T01:14:26.323Z,50.80
2017-09-19T01:16:53.896Z,53.75
2017-09-19T01:19:22.359Z,58.05
2017-09-19T01:21:49.912Z,53.37
2017-09-19T01:24:18.156Z,56.90
2017-09-19T01:26:45.785Z,61.53
2017-09-19T01:29:13.252Z,59.20
2017-09-19T01:31:41.519Z,65.95
2017-09-19T01:34:09.860Z,58.00
2017-09-19T01:36:37.425Z,58.95
2017-09-19T01:39:05.680Z,63.53
2017-09-19T01:41:34.048Z,67.60
2017-09-19T01:44:02.307Z,63.77
2017-09-19T01:46:30.568Z,67.17
2017-09-19T01:48:59.034Z,62.60
2017-09-19T01:51:27.264Z,65.97
2017-09-19T01:53:54.835Z,67.32
2017-09-19T01:56:23.120Z,61.25
2017-09-19T01:58:50.591Z,62.42
2017-09-19T02:01:18.079Z,60.85
2017-09-19T02:03:46.444Z,70.10
2017-09-19T02:06:14.678Z,69.40
2017-09-19T02:08:42.244Z,64.90
2017-09-19T02:11:10.604Z,73.32
2017-09-19T02:13:38.868Z,63.42
2017-09-19T02:16:07.133Z,66.93
2017-09-19T02:18:35.404Z,65.70
2017-09-19T02:21:02.878Z,62.20
2017-09-19T02:23:30.336Z,59.50
2017-09-19T02:25:57.916Z,60.97
2017-09-19T02:28:26.152Z,69.53
2017-09-19T02:30:53.660Z,63.28
2017-09-19T02:33:21.172Z,64.95
2017-09-19T02:35:49.408Z,62.05
2017-09-19T02:38:17.171Z,69.65
2017-09-19T02:40:45.412Z,77.40
2017-09-19T02:43:12.877Z,65.23
2017-09-19T02:45:41.233Z,73.67
2017-09-19T02:48:09.460Z,70.27
2017-09-19T02:50:36.931Z,65.00
2017-09-19T02:53:05.297Z,71.57
2017-09-19T02:55:32.850Z,62.80
2017-09-19T02:58:01.071Z,65.03
2017-09-19T03:00:28.855Z,80.53
2017-09-19T03:02:57.084Z,75.12
2017-09-19T03:05:24.552Z,87.73
2017-09-19T03:07:52.819Z,82.03
2017-09-19T03:10:21.076Z,74.77
2017-09-19T03:12:49.317Z,67.47
2017-09-19T03:15:16.992Z,73.63
2017-09-19T03:17:45.229Z,68.30
2017-09-19T03:20:12.761Z,73.73
2017-09-19T03:22:40.252Z,64.53
2017-09-19T03:25:07.764Z,61.90
2017-09-19T03:27:35.999Z,67.90
2017-09-19T03:30:03.497Z,69.83
2017-09-19T03:32:31.011Z,76.03
2017-09-19T03:34:59.267Z,69.97
2017-09-19T03:37:27.628Z,59.30
2017-09-19T03:39:55.855Z,55.47
2017-09-19T03:42:23.335Z,53.10
2017-09-19T03:44:51.691Z,60.97
2017-09-19T03:47:19.927Z,57.10
2017-09-19T03:49:47.399Z,63.77
2017-09-19T03:52:15.764Z,60.27
2017-09-19T03:54:43.987Z,58.70
2017-09-19T03:57:11.452Z,58.50
2017-09-19T03:59:39.731Z,55.17
2017-09-19T04:02:07.984Z,57.00
2017-09-19T04:04:36.345Z,63.40
2017-09-19T04:07:04.807Z,61.87
2017-09-19T04:09:33.036Z,65.67
2017-09-19T04:12:00.495Z,70.97
2017-09-19T04:14:27.995Z,65.30
2017-09-19T04:16:55.456Z,59.03
2017-09-19T04:19:22.948Z,69.13
2017-09-19T04:21:51.200Z,70.77
2017-09-19T04:24:19.456Z,70.10
2017-09-19T04:26:47.688Z,66.43
2017-09-19T04:29:15.352Z,63.50
2017-09-19T04:31:42.813Z,75.70
2017-09-19T04:34:11.040Z,62.93
2017-09-19T04:36:38.536Z,58.90
2017-09-19T04:39:06.051Z,64.57
2017-09-19T04:41:34.276Z,71.00
2017-09-19T04:44:01.953Z,71.63
2017-09-19T04:46:30.181Z,65.93
2017-09-19T04:48:57.640Z,77.03
2017-09-19T04:51:25.296Z,70.47
2017-09-19T04:53:52.853Z,71.83
2017-09-19T04:56:21.082Z,79.95
2017-09-19T04:58:48.600Z,70.40
2017-09-19T05:01:16.092Z,69.93
2017-09-19T05:03:44.351Z,63.13
2017-09-19T05:06:12.617Z,79.73
2017-09-19T05:08:40.872Z,76.73
2017-09-19T05:11:09.104Z,61.33
2017-09-19T05:13:36.603Z,71.63
2017-09-19T05:16:04.072Z,60.33
2017-09-19T05:18:31.557Z,77.97
2017-09-19T05:21:00.077Z,83.18
2017-09-19T05:23:27.559Z,63.17
2017-09-19T05:25:55.112Z,75.90
2017-09-19T05:28:23.359Z,67.20
2017-09-19T05:30:50.885Z,70.90
2017-09-19T05:33:18.351Z,68.20
2017-09-19T05:35:45.835Z,69.73
2017-09-19T05:38:13.339Z,76.85
2017-09-19T05:40:41.568Z,62.00
2017-09-19T05:43:09.218Z,73.90
2017-09-19T05:45:36.683Z,65.40
2017-09-19T05:48:04.144Z,74.60
2017-09-19T05:50:31.816Z,66.33
2017-09-19T05:52:59.311Z,80.93
2017-09-19T05:55:27.544Z,75.47
2017-09-19T05:57:55.220Z,60.80
2017-09-19T06:00:23.456Z,61.20
2017-09-19T06:02:50.941Z,77.47
2017-09-19T06:05:18.464Z,79.77
2017-09-19T06:07:46.707Z,74.30
2017-09-19T06:10:14.174Z,62.00
2017-09-19T06:12:42.627Z,65.87
2017-09-19T06:15:10.179Z,61.07
2017-09-19T06:17:38.435Z,78.00
2017-09-19T06:20:06.679Z,69.33
2017-09-19T06:22:34.236Z,75.43
2017-09-19T06:25:01.705Z,63.90
2017-09-19T06:27:29.687Z,71.97
2017-09-19T06:29:57.229Z,55.03
2017-09-19T06:32:24.715Z,62.70
2017-09-19T06:34:52.192Z,65.10
2017-09-19T06:37:19.688Z,76.83
2017-09-19T06:39:47.154Z,70.07
2017-09-19T06:42:16.196Z,70.60
2017-09-19T06:44:43.688Z,81.97
2017-09-19T06:47:11.221Z,79.80
2017-09-19T06:49:38.692Z,68.47
2017-09-19T06:52:06.396Z,69.30
2017-09-19T06:54:34.657Z,58.57
2017-09-19T06:57:02.200Z,57.63
2017-09-19T06:59:30.464Z,63.53
2017-09-19T07:01:58.691Z,62.77
2017-09-19T07:04:26.164Z,55.90
2017-09-19T07:06:54.428Z,56.63
2017-09-19T07:09:22.664Z,53.00
2017-09-19T07:11:50.228Z,49.83
2017-09-19T07:14:18.599Z,55.23
2017-09-19T07:16:46.869Z,36.60
2017-09-19T07:19:15.095Z,38.03
2017-09-19T07:21:42.860Z,40.23
2017-09-19T07:24:11.092Z,42.60
2017-09-19T07:26:38.648Z,41.30
2017-09-19T07:29:06.123Z,44.90
2017-09-19T07:31:33.648Z,39.30
2017-09-19T07:34:02.120Z,42.17
2017-09-19T07:36:30.375Z,52.17
2017-09-19T07:38:58.611Z,48.17
2017-09-19T07:41:26.280Z,38.83
2017-09-19T07:43:54.544Z,38.93
2017-09-19T07:46:22.775Z,49.30
2017-09-19T07:48:50.343Z,44.17
2017-09-19T07:51:18.566Z,43.93
2017-09-19T07:53:46.054Z,46.70
2017-09-19T07:56:14.403Z,50.93
2017-09-19T07:58:42.664Z,43.90
2017-09-19T08:01:10.927Z,48.67
2017-09-19T08:03:39.215Z,53.37
2017-09-19T08:06:06.675Z,38.17
2017-09-19T08:08:34.137Z,49.13
2017-09-19T08:11:01.824Z,42.70
2017-09-19T08:13:30.056Z,42.53
2017-09-19T08:15:57.515Z,36.47
2017-09-19T08:18:25.875Z,35.03
2017-09-19T08:20:53.423Z,48.40
2017-09-19T08:23:20.980Z,43.73
2017-09-19T08:25:49.228Z,42.83
2017-09-19T08:28:17.502Z,38.77
2017-09-19T08:30:45.736Z,35.23
2017-09-19T08:33:13.229Z,36.73
2017-09-19T08:35:40.737Z,34.50
2017-09-19T08:38:08.960Z,31.80
2017-09-19T08:40:36.527Z,34.40
2017-09-19T08:43:04.077Z,31.37
2017-09-19T08:45:31.536Z,35.00
2017-09-19T08:47:59.991Z,34.23
2017-09-19T08:50:28.243Z,34.70
2017-09-19T08:52:56.711Z,33.90
2017-09-19T08:55:24.312Z,29.53
2017-09-19T08:57:52.541Z,32.70
2017-09-19T09:00:20.031Z,29.53
2017-09-19T09:02:48.372Z,30.13
2017-09-19T09:05:15.921Z,33.13
2017-09-19T09:07:44.155Z,29.90
2017-09-19T09:10:11.643Z,32.33
2017-09-19T09:12:39.108Z,33.53
2017-09-19T09:15:06.610Z,28.93
2017-09-19T09:17:35.073Z,31.33
2017-09-19T09:20:03.299Z,27.60
2017-09-19T09:22:30.768Z,22.87
2017-09-19T09:24:58.259Z,25.03
2017-09-19T09:27:25.724Z,23.60
2017-09-19T09:29:53.199Z,22.20
2017-09-19T09:32:21.549Z,23.23
2017-09-19T09:34:49.019Z,25.20
2017-09-19T09:37:16.544Z,18.97
2017-09-19T09:39:44.904Z,24.10
2017-09-19T09:42:12.363Z,27.50
2017-09-19T09:44:40.604Z,21.40
2017-09-19T09:47:08.330Z,20.87
2017-09-19T09:49:35.788Z,24.20
2017-09-19T09:52:03.251Z,22.23
2017-09-19T09:54:31.512Z,23.07
2017-09-19T09:56:59.740Z,22.50
2017-09-19T09:59:27.210Z,21.63
2017-09-19T10:01:54.764Z,20.90
2017-09-19T10:04:23.082Z,22.20
2017-09-19T10:06:50.580Z,18.90
2017-09-19T10:09:18.927Z,21.60
2017-09-19T10:11:47.187Z,19.00
2017-09-19T10:14:15.425Z,20.27
2017-09-19T10:16:43.096Z,18.57
2017-09-19T10:19:10.624Z,19.03
2017-09-19T10:21:38.180Z,15.57
2017-09-19T10:24:05.664Z,16.30
2017-09-19T10:26:33.167Z,16.70
2017-09-19T10:29:01.387Z,18.20
2017-09-19T10:31:28.967Z,16.73
2017-09-19T10:33:57.231Z,19.17
2017-09-19T10:36:25.456Z,15.57
2017-09-19T10:38:53.095Z,13.47
2017-09-19T10:41:20.575Z,15.03
2017-09-19T10:43:48.832Z,16.80
2017-09-19T10:46:17.084Z,12.53
2017-09-19T10:48:44.550Z,13.87
2017-09-19T10:51:12.776Z,14.00
2017-09-19T10:53:40.344Z,16.80
2017-09-19T10:56:07.901Z,14.13
2017-09-19T10:58:35.364Z,17.27
2017-09-19T11:01:02.936Z,15.50
2017-09-19T11:03:31.188Z,14.60
2017-09-19T11:05:58.639Z,13.50
2017-09-19T11:08:26.216Z,12.70
2017-09-19T11:10:53.766Z,12.97
2017-09-19T11:13:21.324Z,10.90
2017-09-19T11:15:49.683Z,12.70
2017-09-19T11:18:17.136Z,14.90
2017-09-19T11:20:45.387Z,12.47
2017-09-19T11:23:13.752Z,11.80
2017-09-19T11:25:41.976Z,12.90
2017-09-19T11:28:10.242Z,13.40
2017-09-19T11:30:38.482Z,14.20
2017-09-19T11:33:05.935Z,14.13
2017-09-19T11:35:33.446Z,12.50
2017-09-19T11:38:00.908Z,12.70
2017-09-19T11:40:28.367Z,10.27
2017-09-19T11:42:56.836Z,11.63
2017-09-19T11:45:24.295Z,10.77
2017-09-19T11:47:52.539Z,10.40
2017-09-19T11:50:20.280Z,8.30
2017-09-19T11:52:47.745Z,10.40
2017-09-19T11:55:15.979Z,8.63
2017-09-19T11:57:43.531Z,8.20
2017-09-19T12:00:10.992Z,8.03
2017-09-19T12:02:39.235Z,10.20
2017-09-19T12:05:07.600Z,9.03
2017-09-19T12:07:35.821Z,10.60
2017-09-19T12:10:03.283Z,13.07
2017-09-19T12:12:30.838Z,10.00
2017-09-19T12:14:59.070Z,10.53
2017-09-19T12:17:26.536Z,12.23
2017-09-19T12:19:54.035Z,10.57
2017-09-19T12:22:22.260Z,11.17
2017-09-19T12:24:49.744Z,11.33
2017-09-19T12:27:17.348Z,11.60
2017-09-19T12:29:44.818Z,10.23
2017-09-19T12:32:13.068Z,11.63
2017-09-19T12:34:40.740Z,11.03
2017-09-19T12:37:08.976Z,10.90
2017-09-19T12:39:36.427Z,10.60
2017-09-19T12:42:04.783Z,10.47
2017-09-19T12:44:32.242Z,13.30
2017-09-19T12:47:00.488Z,11.30
2017-09-19T12:49:28.028Z,11.83
2017-09-19T12:51:56.283Z,9.87
2017-09-19T12:54:23.835Z,12.70
2017-09-19T12:56:55.985Z,13.43
2017-09-19T12:59:24.208Z,10.87
2017-09-19T13:01:51.685Z,12.13
2017-09-19T13:04:19.207Z,10.77
2017-09-19T13:06:46.761Z,10.20
2017-09-19T13:09:14.220Z,10.63
2017-09-19T13:11:42.572Z,10.20
2017-09-19T13:14:10.029Z,10.90
2017-09-19T13:16:38.255Z,12.80
2017-09-19T13:19:05.819Z,11.87
2017-09-19T13:21:34.084Z,14.60
2017-09-19T13:24:02.348Z,12.33
2017-09-19T13:26:30.619Z,10.47
2017-09-19T13:28:58.852Z,12.33
2017-09-19T13:31:38.393Z,12.00
2017-09-19T13:34:05.862Z,11.47
2017-09-19T13:36:33.335Z,12.60
2017-09-19T13:39:01.768Z,10.87
2017-09-19T13:41:29.220Z,10.50
2017-09-19T13:43:56.676Z,12.23
2017-09-19T13:46:24.947Z,12.50
2017-09-19T13:48:53.172Z,14.13
2017-09-19T13:51:20.637Z,17.40
2017-09-19T13:53:48.247Z,15.30
2017-09-19T13:56:15.716Z,16.10
2017-09-19T13:58:43.266Z,16.53
2017-09-19T14:01:11.608Z,17.33
2017-09-19T14:03:39.874Z,14.47
2017-09-19T14:06:08.852Z,15.07
2017-09-19T14:08:37.220Z,14.50
2017-09-19T14:11:05.592Z,15.47
2017-09-19T14:13:33.947Z,13.57
2017-09-19T14:16:02.195Z,13.03
2017-09-19T14:18:29.656Z,11.47
2017-09-19T14:20:57.924Z,12.20
2017-09-19T14:23:26.177Z,11.80
2017-09-19T14:25:54.427Z,11.13
2017-09-19T14:28:21.897Z,11.00
2017-09-19T14:30:49.355Z,11.37
2017-09-19T14:33:17.061Z,10.33
2017-09-19T14:35:44.531Z,12.30
2017-09-19T14:38:11.998Z,12.57
2017-09-19T14:40:39.525Z,12.80
2017-09-19T14:43:07.032Z,11.40
2017-09-19T14:45:35.260Z,12.83
2017-09-19T14:48:02.769Z,13.57
2017-09-19T14:50:30.229Z,13.50
2017-09-19T14:52:57.722Z,15.60
2017-09-19T14:55:26.183Z,14.10
2017-09-19T14:57:53.641Z,12.07
2017-09-19T15:00:21.883Z,13.43
2017-09-19T15:02:50.144Z,12.30
2017-09-19T15:05:18.423Z,11.80
2017-09-19T15:07:45.963Z,13.17
2017-09-19T15:10:14.316Z,12.67
2017-09-19T15:12:42.561Z,12.07
2017-09-19T15:15:10.032Z,11.67
2017-09-19T15:17:38.478Z,12.93
2017-09-19T15:20:05.940Z,11.20
2017-09-19T15:22:34.181Z,11.60
2017-09-19T15:25:02.440Z,12.43
2017-09-19T15:27:29.895Z,13.20
2017-09-19T15:29:58.240Z,14.07
2017-09-19T15:32:25.711Z,14.30
2017-09-19T15:34:53.178Z,12.87
2017-09-19T15:37:20.676Z,12.80
2017-09-19T15:39:48.909Z,15.07
2017-09-19T15:42:16.471Z,13.00
2017-09-19T15:44:44.731Z,13.27
2017-09-19T15:47:12.956Z,12.57
2017-09-19T15:49:40.487Z,15.40
2017-09-19T15:52:08.188Z,13.30
2017-09-19T15:54:36.407Z,10.43
2017-09-19T15:57:03.868Z,12.50
2017-09-19T15:59:31.362Z,10.40
2017-09-19T16:01:58.876Z,12.37
2017-09-19T16:04:27.099Z,12.80
2017-09-19T16:06:54.763Z,16.33
2017-09-19T16:09:22.225Z,13.77
2017-09-19T16:11:50.443Z,13.80
2017-09-19T16:14:18.015Z,13.37
2017-09-19T16:16:45.484Z,14.50
2017-09-19T16:19:12.949Z,12.57
2017-09-19T16:21:40.444Z,15.60
2017-09-19T16:24:08.672Z,14.30
2017-09-19T16:26:36.148Z,14.90
2017-09-19T16:29:04.403Z,14.93
2017-09-19T16:31:32.628Z,15.90
2017-09-19T16:34:00.110Z,15.83
2017-09-19T16:36:28.532Z,16.97
2017-09-19T16:38:56.012Z,13.67
2017-09-19T16:41:24.240Z,18.90
2017-09-19T16:43:51.723Z,16.23
2017-09-19T16:46:19.975Z,16.00
2017-09-19T16:48:48.236Z,18.33
2017-09-19T16:51:16.556Z,19.07
2017-09-19T16:53:44.051Z,19.70
2017-09-19T16:56:12.310Z,18.57
2017-09-19T16:58:40.544Z,19.13
2017-09-19T17:01:08.044Z,20.13
2017-09-19T17:03:35.512Z,22.30
2017-09-19T17:06:02.996Z,19.50
2017-09-19T17:08:31.228Z,19.67
2017-09-19T17:10:58.793Z,19.23
2017-09-19T17:13:27.053Z,19.50
2017-09-19T17:15:55.278Z,21.70
2017-09-19T17:18:22.776Z,22.27
2017-09-19T17:20:50.293Z,21.37
2017-09-19T17:23:18.528Z,22.17
2017-09-19T17:25:46.100Z,21.97
2017-09-19T17:28:14.341Z,21.50
2017-09-19T17:30:41.905Z,22.43
2017-09-19T17:33:10.275Z,21.80
2017-09-19T17:35:38.530Z,23.67
2017-09-19T17:38:06.763Z,22.83
2017-09-19T17:40:34.252Z,21.90
2017-09-19T17:43:01.768Z,20.33
2017-09-19T17:45:30.028Z,24.17
2017-09-19T17:47:58.591Z,22.60
2017-09-19T17:50:26.824Z,22.97
2017-09-19T17:52:54.283Z,24.77
2017-09-19T17:55:21.781Z,22.43
2017-09-19T17:57:49.244Z,25.90
2017-09-19T18:00:16.724Z,23.43
2017-09-19T18:02:44.983Z,23.97
2017-09-19T18:05:13.225Z,25.13
2017-09-19T18:07:40.792Z,28.40
2017-09-19T18:10:09.040Z,25.60
2017-09-19T18:12:37.284Z,25.73
2017-09-19T18:15:04.847Z,24.43
2017-09-19T18:17:33.076Z,33.93
2017-09-19T18:20:00.556Z,26.43
2017-09-19T18:22:28.808Z,25.77
2017-09-19T18:24:56.264Z,26.50
2017-09-19T18:27:24.494Z,30.50
2017-09-19T18:29:52.000Z,29.83
2017-09-19T18:32:19.463Z,32.33
2017-09-19T18:34:46.929Z,25.40
2017-09-19T18:37:14.413Z,28.63
2017-09-19T18:39:41.898Z,29.70
2017-09-19T18:42:09.371Z,31.80
2017-09-19T18:44:37.723Z,29.50
2017-09-19T18:47:05.951Z,27.57
2017-09-19T18:49:33.423Z,30.60
2017-09-19T18:52:01.132Z,32.03
2017-09-19T18:54:28.592Z,31.70
2017-09-19T18:56:56.053Z,31.43
2017-09-19T18:59:23.609Z,35.63
2017-09-19T19:01:51.832Z,33.30
2017-09-19T19:04:19.403Z,28.83
2017-09-19T19:06:47.764Z,33.60
2017-09-19T19:09:16.031Z,36.67
2017-09-19T19:11:43.787Z,30.57
2017-09-19T19:14:12.149Z,36.30
2017-09-19T19:16:40.409Z,35.17
2017-09-19T19:19:08.635Z,37.10
2017-09-19T19:21:36.199Z,30.37
2017-09-19T19:24:03.748Z,34.70
2017-09-19T19:26:31.975Z,35.53
2017-09-19T19:28:59.620Z,37.80
2017-09-19T19:31:27.076Z,32.97
2017-09-19T19:33:54.549Z,38.70
2017-09-19T19:36:22.896Z,36.30
2017-09-19T19:38:51.131Z,33.50
2017-09-19T19:41:18.596Z,31.47
2017-09-19T19:43:47.060Z,31.43
2017-09-19T19:46:15.308Z,32.93
2017-09-19T19:48:42.876Z,34.07
2017-09-19T19:51:10.384Z,34.63
2017-09-19T19:53:37.846Z,32.23
2017-09-19T19:56:05.308Z,34.53
2017-09-19T19:58:33.551Z,33.03
2017-09-19T20:01:01.792Z,30.20
2017-09-19T20:03:29.248Z,29.40
2017-09-19T20:05:56.801Z,32.47
2017-09-19T20:08:25.028Z,33.50
2017-09-19T20:10:52.491Z,32.33
2017-09-19T20:13:19.992Z,33.10
2017-09-19T20:15:47.459Z,34.90
2017-09-19T20:18:14.951Z,32.70
2017-09-19T20:20:42.481Z,33.23
2017-09-19T20:23:10.756Z,32.67
2017-09-19T20:25:38.212Z,35.30
2017-09-19T20:28:05.924Z,35.83
2017-09-19T20:30:34.152Z,38.00
2017-09-19T20:33:01.616Z,37.60
2017-09-19T20:35:29.980Z,35.50
2017-09-19T20:37:57.444Z,35.10
2017-09-19T20:40:24.968Z,33.63
2017-09-19T20:42:53.429Z,35.50
2017-09-19T20:45:21.660Z,35.33
2017-09-19T20:47:49.122Z,35.97
2017-09-19T20:50:16.631Z,37.50
2017-09-19T20:52:44.151Z,33.10
2017-09-19T20:55:12.388Z,33.17
2017-09-19T20:57:40.835Z,31.67
2017-09-19T21:00:08.298Z,36.27
2017-09-19T21:02:36.541Z,36.43
2017-09-19T21:05:09.655Z,37.63
2017-09-19T21:07:42.855Z,38.40
2017-09-19T21:10:16.099Z,38.43
2017-09-19T21:12:49.340Z,43.40
2017-09-19T21:15:22.520Z,35.43
2017-09-19T21:17:55.687Z,39.73
2017-09-19T21:20:22.931Z,36.77
2017-09-19T21:22:51.156Z,41.73
2017-09-19T21:25:18.615Z,41.53
2017-09-19T21:27:46.178Z,42.20
2017-09-19T21:30:14.414Z,36.23
2017-09-19T21:32:41.884Z,38.17
2017-09-19T21:35:09.430Z,43.03
2017-09-19T21:37:37.664Z,44.00
2017-09-19T21:40:05.224Z,37.50
2017-09-19T21:42:33.494Z,40.90
2017-09-19T21:45:01.725Z,39.87
2017-09-19T21:47:29.192Z,43.50
2017-09-19T21:49:57.636Z,37.07
2017-09-19T21:52:25.197Z,44.70
2017-09-19T21:54:53.427Z,38.67
2017-09-19T21:57:20.928Z,43.07
2017-09-19T21:59:48.439Z,41.27
2017-09-19T22:02:16.676Z,37.43
2017-09-19T22:04:44.248Z,45.27
2017-09-19T22:07:12.487Z,41.97
2017-09-19T22:09:40.048Z,46.47
2017-09-19T22:12:07.692Z,41.23
2017-09-19T22:14:35.952Z,43.03
2017-09-19T22:17:04.194Z,42.93
2017-09-19T22:19:31.664Z,49.90
2017-09-19T22:21:59.916Z,43.17
2017-09-19T22:24:28.380Z,44.50
2017-09-19T22:26:56.604Z,42.57
2017-09-19T22:29:24.084Z,48.93
2017-09-19T22:31:52.440Z,50.57
2017-09-19T22:34:20.700Z,47.33
2017-09-19T22:36:48.931Z,48.20
2017-09-19T22:39:16.655Z,43.93
2017-09-19T22:41:44.152Z,45.93
2017-09-19T22:44:12.397Z,46.00
2017-09-19T22:46:40.060Z,47.83
2017-09-19T22:49:08.326Z,49.23
2017-09-19T22:51:36.552Z,50.87
2017-09-19T22:54:04.125Z,46.90
2017-09-19T22:56:32.388Z,46.93
2017-09-19T22:59:00.622Z,50.87
2017-09-19T23:01:28.138Z,50.20
2017-09-19T23:03:55.628Z,53.60
2017-09-19T23:06:23.857Z,46.63
2017-09-19T23:08:51.543Z,50.03
2017-09-19T23:11:19.764Z,53.43
2017-09-19T23:13:47.236Z,57.40
2017-09-19T23:16:15.494Z,50.97
2017-09-19T23:18:43.040Z,57.33
2017-09-19T23:21:11.499Z,59.37
2017-09-19T23:23:38.968Z,58.97
2017-09-19T23:26:06.438Z,56.93
2017-09-19T23:28:34.112Z,56.30
2017-09-19T23:31:01.633Z,56.95
2017-09-19T23:33:29.120Z,66.00
2017-09-19T23:35:57.400Z,65.07
2017-09-19T23:38:24.872Z,60.22
2017-09-19T23:40:52.371Z,57.17
2017-09-19T23:43:20.833Z,64.47
2017-09-19T23:45:49.068Z,59.00
2017-09-19T23:48:16.629Z,61.73
2017-09-19T23:50:45.000Z,61.17
2017-09-19T23:53:13.236Z,62.33
2017-09-19T23:55:40.696Z,59.40
2017-09-19T23:58:08.959Z,58.93
